Time,TemperatureF,DewpointF,PressureIn,WindDirection,WindDirectionDegrees,WindSpeedMPH,WindSpeedGustMPH,Humidity,HourlyPrecipIn,Conditions,Clouds,dailyrainin,SoftwareType,DateUTC
2013-05-29 00:01:00,68.8,62.0,29.76,SSE,168,0.0,5.0,79,0.00,,SKC,0.00,VWS V13.01,2013-05-29 05:01:00,
2013-05-29 00:06:00,68.7,61.9,29.76,ESE,123,0.0,0.0,79,0.00,,SKC,0.00,VWS V13.01,2013-05-29 05:06:00,
2013-05-29 00:11:00,68.7,61.9,29.76,SSW,199,3.0,5.0,79,0.00,,SKC,0.00,VWS V13.01,2013-05-29 05:11:00,
2013-05-29 00:16:00,68.5,61.7,29.77,South,191,0.0,0.0,79,0.00,,SKC,0.00,VWS V13.01,2013-05-29 05:16:00,
2013-05-29 00:21:00,68.5,61.7,29.76,SE,136,0.0,0.0,79,0.00,,SKC,0.00,VWS V13.01,2013-05-29 05:21:00,
2013-05-29 00:26:00,68.4,61.6,29.76,SE,137,0.0,0.0,79,0.00,,SKC,0.00,VWS V13.01,2013-05-29 05:26:00,
2013-05-29 00:31:00,68.3,61.5,29.75,SE,137,0.0,0.0,79,0.00,,SKC,0.00,VWS V13.01,2013-05-29 05:31:00,
2013-05-29 00:36:00,68.1,61.7,29.75,South,170,0.0,0.0,80,0.00,,SKC,0.00,VWS V13.01,2013-05-29 05:36:00,
2013-05-29 00:41:00,68.0,61.6,29.75,ESE,108,0.0,0.0,80,0.00,,SKC,0.00,VWS V13.01,2013-05-29 05:41:00,
2013-05-29 00:46:00,67.9,61.5,29.74,ESE,108,0.0,0.0,80,0.00,,SKC,0.00,VWS V13.01,2013-05-29 05:46:00,
2013-05-29 00:51:00,67.8,61.8,29.75,ESE,111,0.0,0.0,81,0.00,,SKC,0.00,VWS V13.01,2013-05-29 05:51:00,
2013-05-29 00:56:00,67.7,61.7,29.75,ESE,108,0.0,0.0,81,0.00,,SKC,0.00,VWS V13.01,2013-05-29 05:56:00,
2013-05-29 01:01:00,67.5,61.5,29.75,ESE,116,0.0,2.0,81,0.00,,SKC,0.00,VWS V13.01,2013-05-29 06:01:00,
2013-05-29 01:06:00,67.4,61.7,29.75,East,94,4.0,6.0,82,0.00,,SKC,0.00,VWS V13.01,2013-05-29 06:06:00,
2013-05-29 01:11:00,67.4,61.7,29.75,East,94,2.0,6.0,82,0.00,,SKC,0.00,VWS V13.01,2013-05-29 06:11:00,
2013-05-29 01:16:00,67.3,61.6,29.76,East,87,2.0,7.0,82,0.00,,SKC,0.00,VWS V13.01,2013-05-29 06:16:00,
2013-05-29 01:21:00,67.3,61.6,29.75,East,87,6.0,7.0,82,0.00,,SKC,0.00,VWS V13.01,2013-05-29 06:21:00,
2013-05-29 01:26:00,67.2,61.5,29.75,East,87,5.0,6.0,82,0.00,,SKC,0.00,VWS V13.01,2013-05-29 06:26:00,
2013-05-29 01:31:00,67.1,61.4,29.75,East,89,3.0,5.0,82,0.00,,SKC,0.00,VWS V13.01,2013-05-29 06:31:00,
2013-05-29 01:36:00,67.1,61.4,29.75,East,91,0.0,5.0,82,0.00,,SKC,0.00,VWS V13.01,2013-05-29 06:36:00,
2013-05-29 01:41:00,67.0,61.3,29.76,East,91,0.0,4.0,82,0.00,,SKC,0.00,VWS V13.01,2013-05-29 06:41:00,
2013-05-29 01:46:00,66.9,61.2,29.75,ESE,107,7.0,8.0,82,0.00,,SKC,0.00,VWS V13.01,2013-05-29 06:46:00,
2013-05-29 01:51:00,66.8,61.5,29.75,East,91,2.0,8.0,83,0.01,,SKC,0.01,VWS V13.01,2013-05-29 06:51:00,
2013-05-29 01:56:00,66.8,61.5,29.75,East,99,0.0,5.0,83,0.01,,SKC,0.01,VWS V13.01,2013-05-29 06:56:00,
2013-05-29 02:01:00,66.7,61.4,29.75,ENE,77,0.0,0.0,83,0.01,,SKC,0.01,VWS V13.01,2013-05-29 07:01:00,
2013-05-29 02:06:00,66.7,61.4,29.75,SE,135,9.0,9.0,83,0.01,,SKC,0.01,VWS V13.01,2013-05-29 07:06:00,
2013-05-29 02:11:00,66.7,61.4,29.75,East,83,0.0,0.0,83,0.01,,SKC,0.01,VWS V13.01,2013-05-29 07:11:00,
2013-05-29 02:16:00,66.6,61.3,29.76,SE,126,8.0,8.0,83,0.01,,SKC,0.01,VWS V13.01,2013-05-29 07:16:00,
2013-05-29 02:21:00,66.6,61.3,29.75,SE,129,0.0,6.0,83,0.01,,SKC,0.01,VWS V13.01,2013-05-29 07:21:00,
2013-05-29 02:26:00,66.6,61.3,29.76,SE,131,7.0,12.0,83,0.01,,SKC,0.01,VWS V13.01,2013-05-29 07:26:00,
2013-05-29 02:31:00,66.7,61.4,29.76,ESE,117,7.0,9.0,83,0.01,,SKC,0.01,VWS V13.01,2013-05-29 07:31:00,
2013-05-29 02:36:00,66.7,61.4,29.75,SE,137,6.0,15.0,83,0.01,,SKC,0.01,VWS V13.01,2013-05-29 07:36:00,
2013-05-29 02:41:00,66.9,61.6,29.75,East,98,0.0,10.0,83,0.01,,SKC,0.01,VWS V13.01,2013-05-29 07:41:00,
2013-05-29 02:46:00,67.0,61.3,29.75,East,81,6.0,11.0,82,0.01,,SKC,0.01,VWS V13.01,2013-05-29 07:46:00,
2013-05-29 02:51:00,67.1,61.4,29.75,ESE,120,7.0,7.0,82,0.00,,SKC,0.01,VWS V13.01,2013-05-29 07:51:00,
2013-05-29 02:56:00,67.2,61.5,29.74,South,178,5.0,7.0,82,0.00,,SKC,0.01,VWS V13.01,2013-05-29 07:56:00,
2013-05-29 03:02:00,67.4,62.1,29.75,East,93,0.0,0.0,83,0.00,,SKC,0.01,VWS V13.01,2013-05-29 08:02:00,
2013-05-29 03:07:00,67.4,62.1,29.75,SE,131,0.0,6.0,83,0.00,,SKC,0.01,VWS V13.01,2013-05-29 08:07:00,
2013-05-29 03:13:00,67.4,62.1,29.75,SSE,153,0.0,8.0,83,0.00,,SKC,0.01,VWS V13.01,2013-05-29 08:13:00,
2013-05-29 03:18:00,67.4,62.1,29.75,SE,139,0.0,8.0,83,0.00,,SKC,0.01,VWS V13.01,2013-05-29 08:18:00,
2013-05-29 03:23:00,67.4,62.1,29.75,SE,128,0.0,5.0,83,0.00,,SKC,0.01,VWS V13.01,2013-05-29 08:23:00,
2013-05-29 03:28:00,67.4,62.1,29.75,East,95,4.0,9.0,83,0.00,,SKC,0.01,VWS V13.01,2013-05-29 08:28:00,
2013-05-29 03:34:00,67.3,62.3,29.75,SE,143,0.0,0.0,84,0.00,,SKC,0.01,VWS V13.01,2013-05-29 08:34:00,
2013-05-29 03:39:00,67.3,62.3,29.76,East,83,0.0,7.0,84,0.00,,SKC,0.01,VWS V13.01,2013-05-29 08:39:00,
2013-05-29 03:44:00,67.3,62.3,29.76,SE,132,0.0,0.0,84,0.00,,SKC,0.01,VWS V13.01,2013-05-29 08:44:00,
2013-05-29 03:49:00,67.4,62.4,29.76,SE,136,0.0,6.0,84,0.00,,SKC,0.01,VWS V13.01,2013-05-29 08:49:00,
2013-05-29 03:54:00,67.4,62.7,29.76,ESE,116,2.0,12.0,85,0.00,,SKC,0.01,VWS V13.01,2013-05-29 08:54:00,
2013-05-29 03:59:00,67.5,62.8,29.76,SSE,158,0.0,0.0,85,0.00,,SKC,0.01,VWS V13.01,2013-05-29 08:59:00,
2013-05-29 04:04:00,67.5,62.8,29.76,SSW,192,0.0,6.0,85,0.00,,SKC,0.01,VWS V13.01,2013-05-29 09:04:00,
2013-05-29 04:09:00,67.6,62.9,29.76,SSE,147,0.0,7.0,85,0.00,,SKC,0.01,VWS V13.01,2013-05-29 09:09:00,
2013-05-29 04:14:00,67.7,63.0,29.76,SSE,160,0.0,4.0,85,0.00,,SKC,0.01,VWS V13.01,2013-05-29 09:14:00,
2013-05-29 04:19:00,67.7,63.0,29.76,ESE,114,0.0,5.0,85,0.00,,SKC,0.01,VWS V13.01,2013-05-29 09:19:00,
2013-05-29 04:24:00,67.8,63.1,29.76,SSE,147,0.0,2.0,85,0.00,,SKC,0.01,VWS V13.01,2013-05-29 09:24:00,
2013-05-29 04:29:00,67.9,63.2,29.76,SE,143,0.0,1.0,85,0.00,,SKC,0.01,VWS V13.01,2013-05-29 09:29:00,
2013-05-29 04:34:00,68.0,63.3,29.76,SE,135,0.0,8.0,85,0.00,,SKC,0.01,VWS V13.01,2013-05-29 09:34:00,
2013-05-29 04:39:00,68.1,63.4,29.75,South,180,5.0,6.0,85,0.00,,SKC,0.01,VWS V13.01,2013-05-29 09:39:00,
2013-05-29 04:44:00,68.2,63.9,29.75,SSW,193,6.0,10.0,86,0.00,,SKC,0.01,VWS V13.01,2013-05-29 09:44:00,
2013-05-29 04:49:00,68.4,64.1,29.75,South,181,6.0,14.0,86,0.00,,SKC,0.01,VWS V13.01,2013-05-29 09:49:00,
2013-05-29 04:54:00,68.6,64.2,29.75,SE,131,0.0,4.0,86,0.00,,SKC,0.01,VWS V13.01,2013-05-29 09:54:00,
2013-05-29 04:59:00,68.8,64.4,29.76,SSE,164,4.0,11.0,86,0.00,,SKC,0.01,VWS V13.01,2013-05-29 09:59:00,
2013-05-29 05:04:00,68.9,64.6,29.75,SSE,158,6.0,9.0,86,0.00,,SKC,0.01,VWS V13.01,2013-05-29 10:04:00,
2013-05-29 05:09:00,69.2,64.8,29.75,South,172,0.0,4.0,86,0.00,,SKC,0.01,VWS V13.01,2013-05-29 10:09:00,
2013-05-29 05:14:00,69.3,64.9,29.75,SE,126,0.0,0.0,86,0.00,,SKC,0.01,VWS V13.01,2013-05-29 10:14:00,
2013-05-29 05:19:00,69.5,65.1,29.75,SE,137,0.0,9.0,86,0.00,,SKC,0.01,VWS V13.01,2013-05-29 10:19:00,
2013-05-29 05:24:00,69.6,65.2,29.75,SE,141,0.0,0.0,86,0.00,,SKC,0.01,VWS V13.01,2013-05-29 10:24:00,
2013-05-29 05:29:00,69.7,65.0,29.74,SE,133,0.0,0.0,85,0.00,,SKC,0.01,VWS V13.01,2013-05-29 10:29:00,
2013-05-29 05:34:00,69.8,65.1,29.74,ESE,114,4.0,7.0,85,0.00,,SKC,0.01,VWS V13.01,2013-05-29 10:34:00,
2013-05-29 05:39:00,69.7,65.0,29.74,SSW,195,0.0,12.0,85,0.00,,SKC,0.01,VWS V13.01,2013-05-29 10:39:00,
2013-05-29 05:44:00,69.7,65.3,29.74,SE,134,2.0,8.0,86,0.00,,SKC,0.01,VWS V13.01,2013-05-29 10:44:00,
2013-05-29 05:49:00,69.6,64.9,29.74,ENE,58,0.0,1.0,85,0.00,,SKC,0.01,VWS V13.01,2013-05-29 10:49:00,
2013-05-29 05:54:00,69.5,65.1,29.74,SW,221,0.0,11.0,86,0.00,,SKC,0.01,VWS V13.01,2013-05-29 10:54:00,
2013-05-29 05:59:00,69.5,64.8,29.73,ESE,116,0.0,12.0,85,0.00,,SKC,0.01,VWS V13.01,2013-05-29 10:59:00,
2013-05-29 06:04:00,69.5,64.8,29.73,ESE,123,1.0,5.0,85,0.00,,SKC,0.01,VWS V13.01,2013-05-29 11:04:00,
2013-05-29 06:09:00,69.5,64.8,29.73,ESE,119,2.0,9.0,85,0.00,,SKC,0.01,VWS V13.01,2013-05-29 11:09:00,
2013-05-29 06:14:00,69.5,64.8,29.73,ESE,109,7.0,20.0,85,0.00,,SKC,0.01,VWS V13.01,2013-05-29 11:14:00,
2013-05-29 06:19:00,69.6,64.9,29.73,SE,130,2.0,20.0,85,0.00,,SKC,0.01,VWS V13.01,2013-05-29 11:19:00,
2013-05-29 06:24:00,69.7,64.7,29.74,East,93,4.0,11.0,84,0.00,,SKC,0.01,VWS V13.01,2013-05-29 11:24:00,
2013-05-29 06:29:00,69.9,64.8,29.74,East,90,5.0,18.0,84,0.00,,SKC,0.01,VWS V13.01,2013-05-29 11:29:00,
2013-05-29 06:34:00,70.0,64.9,29.74,SE,129,1.0,9.0,84,0.00,,SKC,0.01,VWS V13.01,2013-05-29 11:34:00,
2013-05-29 06:39:00,70.1,65.1,29.75,SE,146,4.0,14.0,84,0.00,,SKC,0.01,VWS V13.01,2013-05-29 11:39:00,
2013-05-29 06:44:00,70.1,64.7,29.75,SSW,206,3.0,7.0,83,0.00,,SKC,0.01,VWS V13.01,2013-05-29 11:44:00,
2013-05-29 06:49:00,70.1,64.7,29.75,ENE,65,4.0,9.0,83,0.00,,SKC,0.01,VWS V13.01,2013-05-29 11:49:00,
2013-05-29 06:54:00,70.1,64.7,29.75,East,97,7.0,7.0,83,0.00,,SKC,0.01,VWS V13.01,2013-05-29 11:54:00,
2013-05-29 06:59:00,70.1,64.7,29.74,SE,133,8.0,11.0,83,0.00,,SKC,0.01,VWS V13.01,2013-05-29 11:59:00,
2013-05-29 07:04:00,70.1,64.7,29.74,ESE,102,4.0,12.0,83,0.00,,SKC,0.01,VWS V13.01,2013-05-29 12:04:00,
2013-05-29 07:09:00,70.1,64.7,29.74,East,92,2.0,11.0,83,0.00,,SKC,0.01,VWS V13.01,2013-05-29 12:09:00,
2013-05-29 07:14:00,70.1,64.7,29.75,ESE,117,6.0,16.0,83,0.00,,SKC,0.01,VWS V13.01,2013-05-29 12:14:00,
2013-05-29 07:19:00,70.1,64.7,29.74,SE,138,5.0,12.0,83,0.00,,SKC,0.01,VWS V13.01,2013-05-29 12:19:00,
2013-05-29 07:24:00,70.1,64.7,29.74,SE,126,6.0,20.0,83,0.00,,SKC,0.01,VWS V13.01,2013-05-29 12:24:00,
2013-05-29 07:29:00,70.2,64.8,29.75,SE,139,7.0,12.0,83,0.00,,SKC,0.01,VWS V13.01,2013-05-29 12:29:00,
2013-05-29 07:34:00,70.3,64.9,29.74,SSE,149,5.0,9.0,83,0.00,,SKC,0.01,VWS V13.01,2013-05-29 12:34:00,
2013-05-29 07:39:00,70.3,64.9,29.74,SE,137,6.0,7.0,83,0.00,,SKC,0.01,VWS V13.01,2013-05-29 12:39:00,
2013-05-29 07:44:00,70.4,65.0,29.74,SSE,161,2.0,10.0,83,0.00,,SKC,0.01,VWS V13.01,2013-05-29 12:44:00,
2013-05-29 07:49:00,70.5,65.1,29.74,SSE,166,5.0,13.0,83,0.00,,SKC,0.01,VWS V13.01,2013-05-29 12:49:00,
2013-05-29 07:54:00,70.6,65.2,29.74,SE,130,4.0,6.0,83,0.00,,SKC,0.01,VWS V13.01,2013-05-29 12:54:00,
2013-05-29 07:59:00,70.6,65.2,29.74,South,179,4.0,13.0,83,0.00,,SKC,0.01,VWS V13.01,2013-05-29 12:59:00,
2013-05-29 08:04:00,70.8,65.4,29.74,SSW,199,5.0,14.0,83,0.00,,SKC,0.01,VWS V13.01,2013-05-29 13:04:00,
2013-05-29 08:09:00,70.9,65.5,29.74,East,85,4.0,13.0,83,0.00,,SKC,0.01,VWS V13.01,2013-05-29 13:09:00,
2013-05-29 08:14:00,70.9,65.1,29.74,SSE,149,4.0,19.0,82,0.00,,SKC,0.01,VWS V13.01,2013-05-29 13:14:00,
2013-05-29 08:20:00,70.6,65.5,29.74,SE,129,9.0,20.0,84,0.00,,SKC,0.01,VWS V13.01,2013-05-29 13:20:00,
2013-05-29 08:25:00,70.1,65.4,29.74,ESE,114,4.0,14.0,85,0.00,,SKC,0.01,VWS V13.01,2013-05-29 13:25:00,
2013-05-29 08:30:00,69.8,65.4,29.74,SSE,161,4.0,10.0,86,0.00,,SKC,0.01,VWS V13.01,2013-05-29 13:30:00,
2013-05-29 08:35:00,69.6,65.6,29.74,SE,139,4.0,12.0,87,0.00,,SKC,0.01,VWS V13.01,2013-05-29 13:35:00,
2013-05-29 08:40:00,69.6,65.6,29.74,SE,135,4.0,11.0,87,0.00,,SKC,0.01,VWS V13.01,2013-05-29 13:40:00,
2013-05-29 08:46:00,69.8,66.1,29.74,SSE,158,9.0,9.0,88,0.00,,SKC,0.01,VWS V13.01,2013-05-29 13:46:00,
2013-05-29 08:51:00,70.0,66.0,29.73,South,191,4.0,12.0,87,0.00,,SKC,0.01,VWS V13.01,2013-05-29 13:51:00,
2013-05-29 08:56:00,70.2,66.2,29.72,SSE,152,4.0,9.0,87,0.00,,SKC,0.01,VWS V13.01,2013-05-29 13:56:00,
2013-05-29 09:01:00,70.4,66.3,29.72,SSE,166,6.0,11.0,87,0.00,,SKC,0.01,VWS V13.01,2013-05-29 14:01:00,
2013-05-29 09:07:00,70.7,66.0,29.73,ESE,116,5.0,11.0,85,0.00,,SKC,0.01,VWS V13.01,2013-05-29 14:07:00,
2013-05-29 09:12:00,70.9,66.2,29.73,East,97,6.0,8.0,85,0.00,,SKC,0.01,VWS V13.01,2013-05-29 14:12:00,
2013-05-29 09:17:00,70.9,65.8,29.73,SSE,149,8.0,14.0,84,0.00,,SKC,0.01,VWS V13.01,2013-05-29 14:17:00,
2013-05-29 09:22:00,70.9,65.8,29.74,South,179,4.0,13.0,84,0.00,,SKC,0.01,VWS V13.01,2013-05-29 14:22:00,
2013-05-29 09:27:00,70.9,66.2,29.74,SSE,151,4.0,9.0,85,0.00,,SKC,0.01,VWS V13.01,2013-05-29 14:27:00,
2013-05-29 09:32:00,70.7,66.0,29.74,ESE,116,1.0,7.0,85,0.00,,SKC,0.01,VWS V13.01,2013-05-29 14:32:00,
2013-05-29 09:37:00,70.5,65.8,29.74,SSE,160,0.0,10.0,85,0.00,,SKC,0.01,VWS V13.01,2013-05-29 14:37:00,
2013-05-29 09:42:00,70.3,65.9,29.73,East,87,0.0,2.0,86,0.00,,SKC,0.01,VWS V13.01,2013-05-29 14:42:00,
2013-05-29 09:47:00,70.1,66.1,29.73,SSE,147,4.0,7.0,87,0.00,,SKC,0.01,VWS V13.01,2013-05-29 14:47:00,
2013-05-29 09:52:00,69.8,65.8,29.75,South,187,6.0,8.0,87,0.00,,SKC,0.01,VWS V13.01,2013-05-29 14:52:00,
2013-05-29 09:57:00,69.5,65.8,29.76,South,184,2.0,8.0,88,0.00,,SKC,0.01,VWS V13.01,2013-05-29 14:57:00,
2013-05-29 10:02:00,69.3,65.6,29.75,SSW,206,9.0,10.0,88,0.00,,SKC,0.01,VWS V13.01,2013-05-29 15:02:00,
2013-05-29 10:07:00,68.9,64.9,29.76,SE,145,4.0,23.0,87,0.00,,SKC,0.01,VWS V13.01,2013-05-29 15:07:00,
2013-05-29 10:12:00,68.3,63.6,29.75,SW,235,3.0,10.0,85,0.00,,SKC,0.01,VWS V13.01,2013-05-29 15:12:00,
2013-05-29 10:17:00,67.8,63.1,29.75,WSW,246,5.0,8.0,85,0.01,,SKC,0.02,VWS V13.01,2013-05-29 15:17:00,
2013-05-29 10:22:00,67.3,62.6,29.76,SSW,213,2.0,6.0,85,0.01,,SKC,0.02,VWS V13.01,2013-05-29 15:22:00,
2013-05-29 10:27:00,66.9,62.6,29.76,SW,225,0.0,1.0,86,0.01,,SKC,0.02,VWS V13.01,2013-05-29 15:27:00,
2013-05-29 10:32:00,66.6,62.6,29.76,ESE,105,8.0,13.0,87,0.01,,SKC,0.02,VWS V13.01,2013-05-29 15:32:00,
2013-05-29 10:37:00,65.8,61.2,29.77,South,174,4.0,7.0,85,0.01,,SKC,0.02,VWS V13.01,2013-05-29 15:37:00,
2013-05-29 10:42:00,65.1,60.8,29.76,SW,218,5.0,13.0,86,0.01,,SKC,0.02,VWS V13.01,2013-05-29 15:42:00,
2013-05-29 10:47:00,64.6,61.0,29.75,South,191,9.0,13.0,88,0.01,,SKC,0.02,VWS V13.01,2013-05-29 15:47:00,
2013-05-29 10:52:00,64.5,61.2,29.74,SSE,147,6.0,10.0,89,0.01,,SKC,0.02,VWS V13.01,2013-05-29 15:52:00,
2013-05-29 10:57:00,64.6,61.3,29.74,SSW,199,6.0,8.0,89,0.01,,SKC,0.02,VWS V13.01,2013-05-29 15:57:00,
2013-05-29 11:02:00,64.8,61.2,29.73,South,172,0.0,15.0,88,0.01,,SKC,0.02,VWS V13.01,2013-05-29 16:02:00,
2013-05-29 11:08:00,65.1,61.5,29.72,South,190,0.0,7.0,88,0.01,,SKC,0.02,VWS V13.01,2013-05-29 16:08:00,
2013-05-29 11:13:00,65.2,61.2,29.71,SE,138,0.0,4.0,87,0.01,,SKC,0.02,VWS V13.01,2013-05-29 16:13:00,
2013-05-29 11:18:00,65.3,61.7,29.70,SE,138,0.0,0.0,88,0.00,,SKC,0.02,VWS V13.01,2013-05-29 16:18:00,
2013-05-29 11:23:00,65.6,62.0,29.70,West,275,6.0,11.0,88,0.00,,SKC,0.02,VWS V13.01,2013-05-29 16:23:00,
2013-05-29 11:28:00,66.1,62.5,29.70,West,280,0.0,1.0,88,0.00,,SKC,0.02,VWS V13.01,2013-05-29 16:28:00,
2013-05-29 11:33:00,67.4,62.4,29.70,South,190,0.0,4.0,84,0.00,,SKC,0.02,VWS V13.01,2013-05-29 16:33:00,
2013-05-29 11:38:00,68.3,62.9,29.72,SSW,201,2.0,5.0,83,0.00,,SKC,0.02,VWS V13.01,2013-05-29 16:38:00,
2013-05-29 11:43:00,68.6,62.5,29.72,SE,146,1.0,6.0,81,0.00,,SKC,0.02,VWS V13.01,2013-05-29 16:43:00,
2013-05-29 11:48:00,68.8,62.7,29.73,SSE,147,5.0,5.0,81,0.00,,SKC,0.02,VWS V13.01,2013-05-29 16:48:00,
2013-05-29 11:53:00,69.1,61.6,29.73,SSE,167,4.0,11.0,77,0.00,,SKC,0.02,VWS V13.01,2013-05-29 16:53:00,
2013-05-29 11:58:00,69.5,62.0,29.73,SSW,199,0.0,10.0,77,0.00,,SKC,0.02,VWS V13.01,2013-05-29 16:58:00,
2013-05-29 12:03:00,69.5,62.3,29.74,SE,139,0.0,13.0,78,0.00,,SKC,0.02,VWS V13.01,2013-05-29 17:03:00,
2013-05-29 12:08:00,69.5,62.3,29.74,South,187,0.0,9.0,78,0.00,,SKC,0.02,VWS V13.01,2013-05-29 17:08:00,
2013-05-29 12:13:00,69.5,63.1,29.73,ENE,78,0.0,7.0,80,0.00,,SKC,0.02,VWS V13.01,2013-05-29 17:13:00,
2013-05-29 12:18:00,69.4,63.3,29.73,South,180,4.0,14.0,81,0.00,,SKC,0.02,VWS V13.01,2013-05-29 17:18:00,
2013-05-29 12:23:00,69.4,63.7,29.74,SW,226,0.0,7.0,82,0.00,,SKC,0.02,VWS V13.01,2013-05-29 17:23:00,
2013-05-29 12:28:00,69.3,63.9,29.74,SSW,205,0.0,0.0,83,0.00,,SKC,0.02,VWS V13.01,2013-05-29 17:28:00,
2013-05-29 12:33:00,69.2,64.2,29.74,SW,226,4.0,4.0,84,0.00,,SKC,0.02,VWS V13.01,2013-05-29 17:33:00,
2013-05-29 12:38:00,69.2,64.2,29.73,SE,133,0.0,9.0,84,0.00,,SKC,0.02,VWS V13.01,2013-05-29 17:38:00,
2013-05-29 12:43:00,69.2,64.5,29.73,South,174,0.0,6.0,85,0.00,,SKC,0.02,VWS V13.01,2013-05-29 17:43:00,
2013-05-29 12:48:00,69.1,64.4,29.73,SSE,157,0.0,0.0,85,0.00,,SKC,0.02,VWS V13.01,2013-05-29 17:48:00,
2013-05-29 12:53:00,69.0,64.6,29.73,SSW,197,0.0,6.0,86,0.00,,SKC,0.02,VWS V13.01,2013-05-29 17:53:00,
2013-05-29 12:58:00,69.0,64.6,29.73,SSE,149,4.0,6.0,86,0.00,,SKC,0.02,VWS V13.01,2013-05-29 17:58:00,
2013-05-29 13:03:00,69.1,65.1,29.73,ESE,115,0.0,0.0,87,0.00,,SKC,0.02,VWS V13.01,2013-05-29 18:03:00,
2013-05-29 13:09:00,69.2,65.2,29.73,ESE,106,0.0,2.0,87,0.00,,SKC,0.02,VWS V13.01,2013-05-29 18:09:00,
2013-05-29 13:14:00,69.2,64.8,29.73,ENE,64,6.0,10.0,86,0.00,,SKC,0.02,VWS V13.01,2013-05-29 18:14:00,
2013-05-29 13:19:00,69.3,64.9,29.73,SE,137,6.0,10.0,86,0.00,,SKC,0.02,VWS V13.01,2013-05-29 18:19:00,
2013-05-29 13:24:00,69.4,65.0,29.73,SSW,195,0.0,0.0,86,0.00,,SKC,0.02,VWS V13.01,2013-05-29 18:24:00,
2013-05-29 13:29:00,69.7,65.3,29.73,SE,139,0.0,0.0,86,0.00,,SKC,0.02,VWS V13.01,2013-05-29 18:29:00,
2013-05-29 13:34:00,69.8,65.4,29.73,South,173,0.0,9.0,86,0.00,,SKC,0.02,VWS V13.01,2013-05-29 18:34:00,
2013-05-29 13:39:00,70.0,65.6,29.72,ENE,77,0.0,7.0,86,0.00,,SKC,0.02,VWS V13.01,2013-05-29 18:39:00,
2013-05-29 13:44:00,70.1,65.7,29.70,SE,124,6.0,8.0,86,0.00,,SKC,0.02,VWS V13.01,2013-05-29 18:44:00,
2013-05-29 13:49:00,70.9,66.8,29.71,SE,139,7.0,17.0,87,0.00,,SKC,0.02,VWS V13.01,2013-05-29 18:49:00,
2013-05-29 13:54:00,71.4,66.3,29.70,SE,139,9.0,14.0,84,0.00,,SKC,0.02,VWS V13.01,2013-05-29 18:54:00,
2013-05-29 13:59:00,71.5,66.4,29.71,SE,137,8.0,13.0,84,0.00,,SKC,0.02,VWS V13.01,2013-05-29 18:59:00,
2013-05-29 14:04:00,71.4,66.3,29.72,ESE,121,8.0,13.0,84,0.00,,SKC,0.02,VWS V13.01,2013-05-29 19:04:00,
2013-05-29 14:09:00,71.1,66.4,29.73,SSW,206,2.0,10.0,85,0.00,,SKC,0.02,VWS V13.01,2013-05-29 19:09:00,
2013-05-29 14:14:00,70.8,66.4,29.72,SE,130,9.0,9.0,86,0.00,,SKC,0.02,VWS V13.01,2013-05-29 19:14:00,
2013-05-29 14:19:00,70.7,66.3,29.73,ESE,106,4.0,10.0,86,0.00,,SKC,0.02,VWS V13.01,2013-05-29 19:19:00,
2013-05-29 14:24:00,70.5,66.1,29.73,SE,124,2.0,9.0,86,0.00,,SKC,0.02,VWS V13.01,2013-05-29 19:24:00,
2013-05-29 14:29:00,70.4,66.0,29.72,SSE,162,6.0,12.0,86,0.00,,SKC,0.02,VWS V13.01,2013-05-29 19:29:00,
2013-05-29 14:34:00,70.4,66.0,29.72,SSE,152,10.0,16.0,86,0.00,,SKC,0.02,VWS V13.01,2013-05-29 19:34:00,
2013-05-29 14:39:00,70.3,65.9,29.73,SSW,195,3.0,16.0,86,0.00,,SKC,0.02,VWS V13.01,2013-05-29 19:39:00,
2013-05-29 14:44:00,70.2,65.8,29.72,ESE,102,9.0,11.0,86,0.00,,SKC,0.02,VWS V13.01,2013-05-29 19:44:00,
2013-05-29 14:49:00,70.2,65.8,29.72,South,173,0.0,8.0,86,0.00,,SKC,0.02,VWS V13.01,2013-05-29 19:49:00,
2013-05-29 14:54:00,70.3,65.9,29.72,South,187,3.0,12.0,86,0.00,,SKC,0.02,VWS V13.01,2013-05-29 19:54:00,
2013-05-29 14:59:00,70.2,65.8,29.71,SSW,201,5.0,9.0,86,0.00,,SKC,0.02,VWS V13.01,2013-05-29 19:59:00,
2013-05-29 15:04:00,70.3,65.6,29.70,South,183,7.0,7.0,85,0.00,,SKC,0.02,VWS V13.01,2013-05-29 20:04:00,
2013-05-29 15:09:00,70.5,65.8,29.71,SSW,197,5.0,5.0,85,0.00,,SKC,0.02,VWS V13.01,2013-05-29 20:09:00,
2013-05-29 15:14:00,71.1,66.7,29.70,East,99,6.0,7.0,86,0.00,,SKC,0.02,VWS V13.01,2013-05-29 20:14:00,
2013-05-29 15:19:00,71.7,67.3,29.69,South,188,4.0,5.0,86,0.00,,SKC,0.02,VWS V13.01,2013-05-29 20:19:00,
2013-05-29 15:24:00,72.6,68.2,29.69,WSW,253,1.0,13.0,86,0.00,,SKC,0.02,VWS V13.01,2013-05-29 20:24:00,
2013-05-29 15:29:00,73.7,68.9,29.68,East,89,2.0,8.0,85,0.00,,SKC,0.02,VWS V13.01,2013-05-29 20:29:00,
2013-05-29 15:34:00,74.3,68.8,29.68,SW,214,0.0,2.0,83,0.00,,SKC,0.02,VWS V13.01,2013-05-29 20:34:00,
2013-05-29 15:40:00,75.5,69.3,29.69,East,95,0.0,6.0,81,0.00,,SKC,0.02,VWS V13.01,2013-05-29 20:40:00,
2013-05-29 15:45:00,75.8,68.8,29.69,SSE,155,14.0,23.0,79,0.00,,SKC,0.02,VWS V13.01,2013-05-29 20:45:00,
2013-05-29 15:51:00,75.5,68.9,29.68,South,187,0.0,10.0,80,0.00,,SKC,0.02,VWS V13.01,2013-05-29 20:51:00,
2013-05-29 15:56:00,75.4,68.8,29.68,SE,135,7.0,7.0,80,0.00,,SKC,0.02,VWS V13.01,2013-05-29 20:56:00,
2013-05-29 16:01:00,75.3,68.7,29.68,ESE,114,5.0,12.0,80,0.00,,SKC,0.02,VWS V13.01,2013-05-29 21:01:00,
2013-05-29 16:06:00,75.4,69.2,29.68,East,80,8.0,8.0,81,0.00,,SKC,0.02,VWS V13.01,2013-05-29 21:06:00,
2013-05-29 16:11:00,75.4,69.2,29.67,SE,137,0.0,16.0,81,0.00,,SKC,0.02,VWS V13.01,2013-05-29 21:11:00,
2013-05-29 16:16:00,75.4,69.2,29.68,ESE,113,0.0,8.0,81,0.00,,SKC,0.02,VWS V13.01,2013-05-29 21:16:00,
2013-05-29 16:21:00,75.1,68.9,29.67,South,176,1.0,12.0,81,0.00,,SKC,0.02,VWS V13.01,2013-05-29 21:21:00,
2013-05-29 16:26:00,74.7,68.8,29.67,East,97,2.0,13.0,82,0.00,,SKC,0.02,VWS V13.01,2013-05-29 21:26:00,
2013-05-29 16:31:00,74.0,68.5,29.66,East,84,10.0,12.0,83,0.00,,SKC,0.02,VWS V13.01,2013-05-29 21:31:00,
2013-05-29 16:36:00,73.5,68.4,29.65,East,99,1.0,13.0,84,0.00,,SKC,0.02,VWS V13.01,2013-05-29 21:36:00,
2013-05-29 16:41:00,73.5,68.7,29.64,SE,133,0.0,6.0,85,0.00,,SKC,0.02,VWS V13.01,2013-05-29 21:41:00,
2013-05-29 16:46:00,74.0,69.2,29.64,East,85,4.0,12.0,85,0.00,,SKC,0.02,VWS V13.01,2013-05-29 21:46:00,
2013-05-29 16:51:00,74.3,69.2,29.64,East,91,7.0,16.0,84,0.00,,SKC,0.02,VWS V13.01,2013-05-29 21:51:00,
2013-05-29 16:56:00,74.1,69.0,29.63,East,87,8.0,11.0,84,0.00,,SKC,0.02,VWS V13.01,2013-05-29 21:56:00,
2013-05-29 17:01:00,74.1,69.3,29.63,East,98,1.0,14.0,85,0.00,,SKC,0.02,VWS V13.01,2013-05-29 22:01:00,
2013-05-29 17:06:00,74.4,69.3,29.63,ESE,119,12.0,15.0,84,0.00,,SKC,0.02,VWS V13.01,2013-05-29 22:06:00,
2013-05-29 17:11:00,74.5,69.3,29.62,East,81,6.0,8.0,84,0.01,,SKC,0.03,VWS V13.01,2013-05-29 22:11:00,
2013-05-29 17:16:00,74.6,69.4,29.63,ESE,123,7.0,11.0,84,0.01,,SKC,0.03,VWS V13.01,2013-05-29 22:16:00,
2013-05-29 17:21:00,74.7,69.6,29.63,ESE,117,13.0,17.0,84,0.01,,SKC,0.03,VWS V13.01,2013-05-29 22:21:00,
2013-05-29 17:26:00,74.5,69.3,29.62,ESE,105,12.0,15.0,84,0.01,,SKC,0.03,VWS V13.01,2013-05-29 22:26:00,
2013-05-29 17:32:00,74.3,69.5,29.61,SE,124,13.0,13.0,85,0.01,,SKC,0.03,VWS V13.01,2013-05-29 22:32:00,
2013-05-29 17:38:00,74.3,69.5,29.61,ESE,113,6.0,24.0,85,0.01,,SKC,0.03,VWS V13.01,2013-05-29 22:38:00,
2013-05-29 17:43:00,74.4,69.6,29.60,SE,126,11.0,24.0,85,0.01,,SKC,0.03,VWS V13.01,2013-05-29 22:43:00,
2013-05-29 17:48:00,74.7,69.6,29.61,SE,132,5.0,13.0,84,0.01,,SKC,0.03,VWS V13.01,2013-05-29 22:48:00,
2013-05-29 17:53:00,74.9,69.4,29.61,ESE,112,2.0,15.0,83,0.01,,SKC,0.03,VWS V13.01,2013-05-29 22:53:00,
2013-05-29 17:58:00,75.1,69.2,29.61,SE,128,4.0,13.0,82,0.01,,SKC,0.03,VWS V13.01,2013-05-29 22:58:00,
2013-05-29 18:03:00,75.2,69.3,29.61,ESE,121,9.0,16.0,82,0.01,,SKC,0.03,VWS V13.01,2013-05-29 23:03:00,
2013-05-29 18:08:00,75.1,69.2,29.62,ESE,115,4.0,15.0,82,0.01,,SKC,0.03,VWS V13.01,2013-05-29 23:08:00,
2013-05-29 18:13:00,75.1,69.2,29.62,East,92,13.0,16.0,82,0.00,,SKC,0.03,VWS V13.01,2013-05-29 23:13:00,
2013-05-29 18:19:00,75.0,69.1,29.61,East,85,13.0,15.0,82,0.00,,SKC,0.03,VWS V13.01,2013-05-29 23:19:00,
2013-05-29 18:24:00,74.9,69.0,29.61,East,96,12.0,14.0,82,0.00,,SKC,0.03,VWS V13.01,2013-05-29 23:24:00,
2013-05-29 18:29:00,74.8,68.9,29.61,ESE,116,12.0,15.0,82,0.00,,SKC,0.03,VWS V13.01,2013-05-29 23:29:00,
2013-05-29 18:34:00,74.8,68.9,29.61,ENE,66,13.0,13.0,82,0.00,,SKC,0.03,VWS V13.01,2013-05-29 23:34:00,
2013-05-29 18:39:00,74.8,68.9,29.62,NE,56,10.0,24.0,82,0.00,,SKC,0.03,VWS V13.01,2013-05-29 23:39:00,
2013-05-29 18:44:00,74.8,68.9,29.59,SE,128,0.0,8.0,82,0.00,,SKC,0.03,VWS V13.01,2013-05-29 23:44:00,
2013-05-29 18:50:00,74.7,68.8,29.60,ESE,122,1.0,15.0,82,0.00,,SKC,0.03,VWS V13.01,2013-05-29 23:50:00,
2013-05-29 18:55:00,74.8,68.9,29.61,SE,127,5.0,13.0,82,0.00,,SKC,0.03,VWS V13.01,2013-05-29 23:55:00,
2013-05-29 19:00:00,74.8,68.9,29.62,SSE,160,2.0,7.0,82,0.00,,SKC,0.03,VWS V13.01,2013-05-30 00:00:00,
2013-05-29 19:06:00,74.9,68.7,29.63,ESE,114,0.0,5.0,81,0.00,,SKC,0.03,VWS V13.01,2013-05-30 00:06:00,
2013-05-29 19:11:00,75.0,68.8,29.63,ENE,72,5.0,18.0,81,0.00,,SKC,0.03,VWS V13.01,2013-05-30 00:11:00,
2013-05-29 19:16:00,75.0,68.4,29.61,ESE,115,9.0,10.0,80,0.00,,SKC,0.03,VWS V13.01,2013-05-30 00:16:00,
2013-05-29 19:21:00,75.1,68.5,29.64,SSE,160,6.0,13.0,80,0.00,,SKC,0.03,VWS V13.01,2013-05-30 00:21:00,
2013-05-29 19:26:00,75.1,68.2,29.63,SW,221,8.0,13.0,79,0.00,,SKC,0.03,VWS V13.01,2013-05-30 00:26:00,
2013-05-29 19:31:00,75.0,68.1,29.62,East,86,7.0,31.0,79,0.00,,SKC,0.03,VWS V13.01,2013-05-30 00:31:00,
2013-05-29 19:36:00,74.9,67.9,29.62,East,89,1.0,19.0,79,0.00,,SKC,0.03,VWS V13.01,2013-05-30 00:36:00,
2013-05-29 19:41:00,74.9,68.7,29.63,SE,141,6.0,13.0,81,0.00,,SKC,0.03,VWS V13.01,2013-05-30 00:41:00,
2013-05-29 19:47:00,74.1,68.3,29.64,WSW,249,7.0,11.0,82,0.00,,SKC,0.03,VWS V13.01,2013-05-30 00:47:00,
2013-05-29 19:52:00,69.9,62.4,29.67,SSW,199,4.0,25.0,77,0.00,,SKC,0.03,VWS V13.01,2013-05-30 00:52:00,
2013-05-29 19:57:00,66.3,61.0,29.63,SSW,193,7.0,7.0,83,0.00,,SKC,0.03,VWS V13.01,2013-05-30 00:57:00,
2013-05-29 20:02:00,65.4,61.1,29.63,SW,214,0.0,4.0,86,0.00,,SKC,0.03,VWS V13.01,2013-05-30 01:02:00,
2013-05-29 20:07:00,65.4,62.1,29.63,SSE,157,4.0,13.0,89,0.00,,SKC,0.03,VWS V13.01,2013-05-30 01:07:00,
2013-05-29 20:12:00,66.2,63.5,29.63,NNE,33,5.0,11.0,91,0.00,,SKC,0.03,VWS V13.01,2013-05-30 01:12:00,
2013-05-29 20:17:00,66.2,63.2,29.64,SSW,201,4.0,8.0,90,0.00,,SKC,0.03,VWS V13.01,2013-05-30 01:17:00,
2013-05-29 20:22:00,65.9,62.9,29.64,ESE,122,0.0,4.0,90,0.00,,SKC,0.03,VWS V13.01,2013-05-30 01:22:00,
2013-05-29 20:27:00,65.6,62.6,29.65,SSE,165,0.0,2.0,90,0.00,,SKC,0.03,VWS V13.01,2013-05-30 01:27:00,
2013-05-29 20:32:00,65.5,62.5,29.65,SSE,157,0.0,0.0,90,0.00,,SKC,0.03,VWS V13.01,2013-05-30 01:32:00,
2013-05-29 20:37:00,65.3,62.6,29.65,SSE,162,0.0,0.0,91,0.00,,SKC,0.03,VWS V13.01,2013-05-30 01:37:00,
2013-05-29 20:42:00,65.1,62.1,29.64,SE,136,0.0,0.0,90,0.00,,SKC,0.03,VWS V13.01,2013-05-30 01:42:00,
2013-05-29 20:47:00,65.1,62.4,29.63,ESE,115,0.0,0.0,91,0.00,,SKC,0.03,VWS V13.01,2013-05-30 01:47:00,
2013-05-29 20:52:00,65.0,62.3,29.66,ESE,115,0.0,0.0,91,0.00,,SKC,0.03,VWS V13.01,2013-05-30 01:52:00,
2013-05-29 20:57:00,65.0,62.3,29.65,ESE,115,0.0,0.0,91,0.00,,SKC,0.03,VWS V13.01,2013-05-30 01:57:00,
2013-05-29 21:02:00,64.8,62.1,29.66,ESE,115,0.0,0.0,91,0.00,,SKC,0.03,VWS V13.01,2013-05-30 02:02:00,
2013-05-29 21:07:00,64.8,62.1,29.65,ESE,121,0.0,0.0,91,0.00,,SKC,0.03,VWS V13.01,2013-05-30 02:07:00,
2013-05-29 21:13:00,64.8,62.1,29.64,ESE,112,2.0,2.0,91,0.00,,SKC,0.03,VWS V13.01,2013-05-30 02:13:00,
2013-05-29 21:18:00,64.9,62.5,29.66,SE,130,0.0,0.0,92,0.00,,SKC,0.03,VWS V13.01,2013-05-30 02:18:00,
2013-05-29 21:23:00,65.0,62.6,29.66,SSW,210,0.0,0.0,92,0.00,,SKC,0.03,VWS V13.01,2013-05-30 02:23:00,
2013-05-29 21:29:00,65.1,62.7,29.65,ESE,110,5.0,15.0,92,0.00,,SKC,0.03,VWS V13.01,2013-05-30 02:29:00,
2013-05-29 21:34:00,65.1,62.7,29.67,South,181,2.0,10.0,92,0.00,,SKC,0.03,VWS V13.01,2013-05-30 02:34:00,
2013-05-29 21:39:00,65.0,62.6,29.67,South,191,5.0,11.0,92,0.00,,SKC,0.03,VWS V13.01,2013-05-30 02:39:00,
2013-05-29 21:44:00,64.8,62.4,29.67,SE,139,1.0,15.0,92,0.00,,SKC,0.03,VWS V13.01,2013-05-30 02:44:00,
2013-05-29 21:49:00,64.6,62.2,29.67,South,185,2.0,12.0,92,0.00,,SKC,0.03,VWS V13.01,2013-05-30 02:49:00,
2013-05-29 21:54:00,64.5,62.4,29.66,SE,141,10.0,13.0,93,0.00,,SKC,0.03,VWS V13.01,2013-05-30 02:54:00,
2013-05-29 21:59:00,64.4,62.3,29.66,SSE,166,5.0,8.0,93,0.00,,SKC,0.03,VWS V13.01,2013-05-30 02:59:00,
2013-05-29 22:04:00,64.3,62.2,29.66,SSW,193,10.0,11.0,93,0.00,,SKC,0.03,VWS V13.01,2013-05-30 03:04:00,
2013-05-29 22:09:00,64.1,62.0,29.67,SE,139,0.0,11.0,93,0.00,,SKC,0.03,VWS V13.01,2013-05-30 03:09:00,
2013-05-29 22:14:00,64.0,61.9,29.67,SSW,207,4.0,11.0,93,0.00,,SKC,0.03,VWS V13.01,2013-05-30 03:14:00,
2013-05-29 22:19:00,64.0,61.9,29.66,SE,133,9.0,9.0,93,0.00,,SKC,0.03,VWS V13.01,2013-05-30 03:19:00,
2013-05-29 22:24:00,63.9,61.8,29.65,ESE,117,0.0,7.0,93,0.00,,SKC,0.03,VWS V13.01,2013-05-30 03:24:00,
2013-05-29 22:29:00,63.8,61.7,29.65,ESE,120,7.0,7.0,93,0.00,,SKC,0.03,VWS V13.01,2013-05-30 03:29:00,
2013-05-29 22:34:00,63.8,61.7,29.65,ESE,118,2.0,16.0,93,0.00,,SKC,0.03,VWS V13.01,2013-05-30 03:34:00,
2013-05-29 22:39:00,63.7,61.6,29.65,SE,146,4.0,8.0,93,0.00,,SKC,0.03,VWS V13.01,2013-05-30 03:39:00,
2013-05-29 22:44:00,63.6,61.5,29.64,SSE,151,13.0,17.0,93,0.00,,SKC,0.03,VWS V13.01,2013-05-30 03:44:00,
2013-05-29 22:49:00,63.5,61.4,29.64,ENE,76,3.0,18.0,93,0.00,,SKC,0.03,VWS V13.01,2013-05-30 03:49:00,
2013-05-29 22:54:00,63.4,61.3,29.62,SE,128,6.0,6.0,93,0.00,,SKC,0.03,VWS V13.01,2013-05-30 03:54:00,
2013-05-29 22:59:00,63.4,61.3,29.61,East,95,14.0,14.0,93,0.00,,SKC,0.03,VWS V13.01,2013-05-30 03:59:00,
2013-05-29 23:01:00,63.3,61.2,29.59,East,99,20.0,21.0,93,0.00,,SKC,0.03,VWS V13.01,2013-05-30 04:01:00,
2013-05-29 23:04:00,63.3,61.2,29.58,SE,134,9.0,20.0,93,0.00,,SKC,0.03,VWS V13.01,2013-05-30 04:04:00,
2013-05-29 23:07:00,63.3,61.2,29.59,East,90,8.0,13.0,93,0.00,,SKC,0.03,VWS V13.01,2013-05-30 04:07:00,
2013-05-29 23:10:00,63.3,61.2,29.60,ESE,117,11.0,11.0,93,0.00,,SKC,0.03,VWS V13.01,2013-05-30 04:10:00,
2013-05-29 23:12:00,63.2,61.2,29.61,East,94,15.0,18.0,93,0.00,,SKC,0.03,VWS V13.01,2013-05-30 04:12:00,
2013-05-29 23:18:00,63.2,61.2,29.63,SSE,160,0.0,6.0,93,0.00,,SKC,0.03,VWS V13.01,2013-05-30 04:18:00,
2013-05-29 23:23:00,63.2,61.2,29.63,South,183,5.0,13.0,93,0.00,,SKC,0.03,VWS V13.01,2013-05-30 04:23:00,
2013-05-29 23:28:00,63.2,61.2,29.62,ENE,58,0.0,0.0,93,0.00,,SKC,0.03,VWS V13.01,2013-05-30 04:28:00,
2013-05-29 23:34:00,63.1,61.0,29.62,SE,130,8.0,13.0,93,0.00,,SKC,0.03,VWS V13.01,2013-05-30 04:34:00,
2013-05-29 23:39:00,63.1,61.0,29.63,SSE,152,5.0,8.0,93,0.00,,SKC,0.03,VWS V13.01,2013-05-30 04:39:00,
2013-05-29 23:44:00,63.1,61.0,29.62,SSW,212,5.0,8.0,93,0.00,,SKC,0.03,VWS V13.01,2013-05-30 04:44:00,
2013-05-29 23:50:00,63.1,61.0,29.62,ESE,106,0.0,0.0,93,0.00,,SKC,0.03,VWS V13.01,2013-05-30 04:50:00,
2013-05-29 23:55:00,63.2,61.2,29.60,SE,135,4.0,13.0,93,0.00,,SKC,0.03,VWS V13.01,2013-05-30 04:55:00,